Time,TemperatureF,DewpointF,PressureIn,WindDirection,WindDirectionDegrees,WindSpeedMPH,WindSpeedGustMPH,Humidity,HourlyPrecipIn,Conditions,Clouds,dailyrainin,SoftwareType,DateUTC
2013-01-16 00:00:00,36.3,35.3,30.14,ENE,63,6.0,6.0,96,0.00,,,0.17,Wunderground v.1.15,2013-01-16 05:00:00,
2013-01-16 00:05:00,36.3,35.3,30.13,NNE,22,6.0,6.0,96,0.00,,,0.01,Wunderground v.1.15,2013-01-16 05:05:00,
2013-01-16 00:09:00,36.3,35.3,30.14,NE,41,3.0,6.0,96,0.00,,,0.01,Wunderground v.1.15,2013-01-16 05:09:00,
2013-01-16 00:13:00,36.3,35.3,30.14,ENE,67,2.0,5.0,96,0.08,,,0.01,Wunderground v.1.15,2013-01-16 05:13:00,
2013-01-16 00:19:00,36.3,35.3,30.12,NE,44,6.0,6.0,96,0.15,,,0.03,Wunderground v.1.15,2013-01-16 05:19:00,
2013-01-16 00:24:00,36.2,35.2,30.13,NW,322,1.0,4.0,96,0.08,,,0.03,Wunderground v.1.15,2013-01-16 05:24:00,
2013-01-16 00:29:00,36.1,35.1,30.11,ENE,57,8.0,8.0,96,0.05,,,0.03,Wunderground v.1.15,2013-01-16 05:29:00,
2013-01-16 00:35:00,36.0,35.0,30.11,NE,47,4.0,5.0,96,0.04,,,0.04,Wunderground v.1.15,2013-01-16 05:35:00,
2013-01-16 00:40:00,35.9,34.9,30.13,ENE,68,3.0,5.0,96,0.08,,,0.04,Wunderground v.1.15,2013-01-16 05:40:00,
2013-01-16 00:45:00,35.8,34.8,30.12,North,5,6.0,6.0,96,0.08,,,0.05,Wunderground v.1.15,2013-01-16 05:45:00,
2013-01-16 00:51:00,35.7,34.7,30.10,NE,44,7.0,7.0,96,0.08,,,0.06,Wunderground v.1.15,2013-01-16 05:51:00,
2013-01-16 00:56:00,35.6,34.6,30.10,ESE,105,2.0,9.0,96,0.11,,,0.07,Wunderground v.1.15,2013-01-16 05:56:00,
2013-01-16 01:02:00,35.5,34.5,30.11,NE,48,2.0,4.0,96,0.06,,,0.07,Wunderground v.1.15,2013-01-16 06:02:00,
2013-01-16 01:07:00,35.5,34.5,30.10,NE,50,6.0,6.0,96,0.05,,,0.08,Wunderground v.1.15,2013-01-16 06:07:00,
2013-01-16 01:12:00,35.5,34.5,30.09,NNE,26,8.0,8.0,96,0.05,,,0.08,Wunderground v.1.15,2013-01-16 06:12:00,
2013-01-16 01:18:00,35.4,34.4,30.09,NE,55,6.0,8.0,96,0.06,,,0.09,Wunderground v.1.15,2013-01-16 06:18:00,
2013-01-16 01:23:00,35.4,34.4,30.10,NE,41,3.0,6.0,96,0.06,,,0.09,Wunderground v.1.15,2013-01-16 06:23:00,
2013-01-16 01:28:00,35.4,34.4,30.10,NE,43,4.0,6.0,96,0.04,,,0.10,Wunderground v.1.15,2013-01-16 06:28:00,
2013-01-16 01:34:00,35.4,34.4,30.11,NE,44,2.0,4.0,96,0.08,,,0.11,Wunderground v.1.15,2013-01-16 06:34:00,
2013-01-16 01:39:00,35.4,34.4,30.10,NNE,27,4.0,4.0,96,0.11,,,0.12,Wunderground v.1.15,2013-01-16 06:39:00,
2013-01-16 01:45:00,35.4,34.4,30.10,NNE,22,4.0,4.0,96,0.14,,,0.13,Wunderground v.1.15,2013-01-16 06:45:00,
2013-01-16 01:50:00,35.3,34.3,30.09,ENE,57,6.0,6.0,96,0.18,,,0.14,Wunderground v.1.15,2013-01-16 06:50:00,
2013-01-16 01:56:00,35.2,34.2,30.09,North,4,7.0,7.0,96,0.12,,,0.16,Wunderground v.1.15,2013-01-16 06:56:00,
2013-01-16 02:02:00,35.2,34.2,30.09,NNW,343,2.0,4.0,96,0.19,,,0.17,Wunderground v.1.15,2013-01-16 07:02:00,
2013-01-16 02:07:00,35.3,34.5,30.10,NNE,12,6.0,6.0,97,0.17,,,0.19,Wunderground v.1.15,2013-01-16 07:07:00,
2013-01-16 02:12:00,35.3,34.5,30.10,North,360,4.0,4.0,97,0.18,,,0.20,Wunderground v.1.15,2013-01-16 07:12:00,
2013-01-16 02:17:00,35.3,34.5,30.10,NE,42,5.0,7.0,97,0.23,,,0.22,Wunderground v.1.15,2013-01-16 07:17:00,
2013-01-16 02:22:00,35.3,34.5,30.09,NE,34,4.0,4.0,97,0.15,,,0.24,Wunderground v.1.15,2013-01-16 07:22:00,
2013-01-16 02:28:00,35.2,34.4,30.09,NNW,345,3.0,8.0,97,0.13,,,0.25,Wunderground v.1.15,2013-01-16 07:28:00,
2013-01-16 02:33:00,35.3,34.5,30.08,ENE,65,4.0,4.0,97,0.09,,,0.25,Wunderground v.1.15,2013-01-16 07:33:00,
2013-01-16 02:39:00,35.3,34.5,30.09,NNW,340,8.0,10.0,97,0.26,,,0.28,Wunderground v.1.15,2013-01-16 07:39:00,
2013-01-16 02:44:00,35.4,34.6,30.09,North,356,5.0,7.0,97,0.12,,,0.29,Wunderground v.1.15,2013-01-16 07:44:00,
2013-01-16 02:49:00,35.5,34.7,30.10,NNW,342,7.0,11.0,97,0.09,,,0.29,Wunderground v.1.15,2013-01-16 07:49:00,
2013-01-16 02:55:00,35.6,34.8,30.10,NNW,328,9.0,12.0,97,0.06,,,0.30,Wunderground v.1.15,2013-01-16 07:55:00,
2013-01-16 03:00:00,35.7,34.9,30.11,NNW,343,9.0,10.0,97,0.06,,,0.30,Wunderground v.1.15,2013-01-16 08:00:00,
2013-01-16 03:05:00,35.9,35.1,30.11,NNW,339,8.0,10.0,97,0.07,,,0.31,Wunderground v.1.15,2013-01-16 08:05:00,
2013-01-16 03:11:00,35.9,35.1,30.11,NNW,346,11.0,11.0,97,0.06,,,0.31,Wunderground v.1.15,2013-01-16 08:11:00,
2013-01-16 03:16:00,36.1,35.3,30.12,NNW,340,13.0,13.0,97,0.04,,,0.32,Wunderground v.1.15,2013-01-16 08:16:00,
2013-01-16 03:22:00,36.0,35.2,30.11,North,360,10.0,10.0,97,0.04,,,0.32,Wunderground v.1.15,2013-01-16 08:22:00,
2013-01-16 03:28:00,35.9,35.1,30.12,North,357,6.0,10.0,97,0.04,,,0.32,Wunderground v.1.15,2013-01-16 08:28:00,
2013-01-16 03:33:00,36.0,35.2,30.11,North,8,10.0,10.0,97,0.04,,,0.33,Wunderground v.1.15,2013-01-16 08:33:00,
2013-01-16 03:38:00,36.2,35.4,30.11,North,349,6.0,10.0,97,0.16,,,0.34,Wunderground v.1.15,2013-01-16 08:38:00,
2013-01-16 03:44:00,36.1,35.3,30.11,North,349,8.0,8.0,97,0.08,,,0.34,Wunderground v.1.15,2013-01-16 08:44:00,
2013-01-16 03:49:00,36.0,35.2,30.10,NNE,13,6.0,10.0,97,0.05,,,0.35,Wunderground v.1.15,2013-01-16 08:49:00,
2013-01-16 03:55:00,35.9,35.1,30.10,North,358,10.0,10.0,97,0.05,,,0.35,Wunderground v.1.15,2013-01-16 08:55:00,
2013-01-16 04:01:00,35.9,35.1,30.09,NNE,18,6.0,7.0,97,0.05,,,0.35,Wunderground v.1.15,2013-01-16 09:01:00,
2013-01-16 04:06:00,35.8,35.0,30.08,NE,34,3.0,7.0,97,0.04,,,0.36,Wunderground v.1.15,2013-01-16 09:06:00,
2013-01-16 04:11:00,35.7,34.9,30.07,North,357,9.0,9.0,97,0.04,,,0.36,Wunderground v.1.15,2013-01-16 09:11:00,
2013-01-16 04:17:00,35.7,34.9,30.08,North,353,6.0,11.0,97,0.04,,,0.36,Wunderground v.1.15,2013-01-16 09:17:00,
2013-01-16 04:22:00,35.7,35.2,30.07,ENE,63,4.0,6.0,98,0.00,,,0.36,Wunderground v.1.15,2013-01-16 09:22:00,
2013-01-16 04:27:00,35.7,35.2,30.07,North,6,3.0,10.0,98,0.00,,,0.36,Wunderground v.1.15,2013-01-16 09:27:00,
2013-01-16 04:33:00,35.8,35.3,30.07,NE,55,5.0,5.0,98,0.00,,,0.36,Wunderground v.1.15,2013-01-16 09:33:00,
2013-01-16 04:38:00,35.8,35.3,30.06,NE,51,8.0,8.0,98,0.00,,,0.36,Wunderground v.1.15,2013-01-16 09:38:00,
2013-01-16 04:44:00,35.7,35.2,30.06,NNE,26,4.0,4.0,98,0.00,,,0.36,Wunderground v.1.15,2013-01-16 09:44:00,
2013-01-16 04:49:00,35.7,35.2,30.06,NNE,29,4.0,5.0,98,0.00,,,0.36,Wunderground v.1.15,2013-01-16 09:49:00,
2013-01-16 04:55:00,35.7,35.2,30.05,ENE,72,5.0,5.0,98,0.00,,,0.36,Wunderground v.1.15,2013-01-16 09:55:00,
2013-01-16 05:00:00,35.6,35.1,30.04,East,89,1.0,4.0,98,0.00,,,0.36,Wunderground v.1.15,2013-01-16 10:00:00,
2013-01-16 05:05:00,35.6,35.1,30.04,NE,47,2.0,6.0,98,0.00,,,0.36,Wunderground v.1.15,2013-01-16 10:05:00,
2013-01-16 05:11:00,35.7,35.2,30.04,NNE,23,5.0,5.0,98,0.00,,,0.36,Wunderground v.1.15,2013-01-16 10:11:00,
2013-01-16 05:16:00,35.7,35.2,30.05,North,354,5.0,8.0,98,0.00,,,0.36,Wunderground v.1.15,2013-01-16 10:16:00,
2013-01-16 05:21:00,35.7,35.2,30.03,East,80,1.0,5.0,98,0.00,,,0.36,Wunderground v.1.15,2013-01-16 10:21:00,
2013-01-16 05:27:00,35.7,35.2,30.01,NE,51,2.0,5.0,98,0.00,,,0.36,Wunderground v.1.15,2013-01-16 10:27:00,
2013-01-16 05:32:00,35.7,35.2,30.01,ESE,104,2.0,2.0,98,0.00,,,0.36,Wunderground v.1.15,2013-01-16 10:32:00,
2013-01-16 05:38:00,35.7,35.2,30.02,ENE,59,1.0,2.0,98,0.00,,,0.36,Wunderground v.1.15,2013-01-16 10:38:00,
2013-01-16 05:43:00,35.6,35.1,30.03,NNE,30,2.0,4.0,98,0.00,,,0.36,Wunderground v.1.15,2013-01-16 10:43:00,
2013-01-16 05:49:00,35.6,35.1,30.03,ENE,65,3.0,6.0,98,0.00,,,0.36,Wunderground v.1.15,2013-01-16 10:49:00,
2013-01-16 05:54:00,35.6,35.1,30.02,NE,40,1.0,3.0,98,0.00,,,0.36,Wunderground v.1.15,2013-01-16 10:54:00,
2013-01-16 06:00:00,35.6,35.1,30.03,ENE,63,2.0,2.0,98,0.00,,,0.36,Wunderground v.1.15,2013-01-16 11:00:00,
2013-01-16 06:05:00,35.6,35.1,30.04,NE,46,2.0,4.0,98,0.00,,,0.36,Wunderground v.1.15,2013-01-16 11:05:00,
2013-01-16 06:10:00,35.7,35.2,30.04,NE,51,2.0,3.0,98,0.00,,,0.36,Wunderground v.1.15,2013-01-16 11:10:00,
2013-01-16 06:16:00,35.7,35.2,30.05,North,359,4.0,6.0,98,0.00,,,0.36,Wunderground v.1.15,2013-01-16 11:16:00,
2013-01-16 06:21:00,35.7,35.2,30.05,NE,41,3.0,3.0,98,0.00,,,0.36,Wunderground v.1.15,2013-01-16 11:21:00,
2013-01-16 06:27:00,35.8,35.3,30.04,ENE,59,1.0,6.0,98,0.00,,,0.36,Wunderground v.1.15,2013-01-16 11:27:00,
2013-01-16 06:32:00,35.9,35.4,30.04,NE,49,2.0,2.0,98,0.00,,,0.36,Wunderground v.1.15,2013-01-16 11:32:00,
2013-01-16 06:38:00,35.8,35.3,30.04,NE,38,2.0,4.0,98,0.00,,,0.36,Wunderground v.1.15,2013-01-16 11:38:00,
2013-01-16 06:43:00,35.9,35.4,30.04,NE,46,3.0,3.0,98,0.00,,,0.36,Wunderground v.1.15,2013-01-16 11:43:00,
2013-01-16 06:49:00,35.8,35.3,30.04,ENE,63,0.0,5.0,98,0.00,,,0.36,Wunderground v.1.15,2013-01-16 11:49:00,
2013-01-16 06:54:00,35.8,35.3,30.03,NNW,345,3.0,3.0,98,0.00,,,0.36,Wunderground v.1.15,2013-01-16 11:54:00,
2013-01-16 07:00:00,35.8,35.3,30.02,NE,55,1.0,5.0,98,0.00,,,0.36,Wunderground v.1.15,2013-01-16 12:00:00,
2013-01-16 07:05:00,35.9,35.4,30.04,North,6,2.0,4.0,98,0.00,,,0.36,Wunderground v.1.15,2013-01-16 12:05:00,
2013-01-16 07:10:00,35.9,35.4,30.04,NNE,23,1.0,2.0,98,0.00,,,0.36,Wunderground v.1.15,2013-01-16 12:10:00,
2013-01-16 07:16:00,35.9,35.4,30.03,NNE,20,2.0,3.0,98,0.00,,,0.36,Wunderground v.1.15,2013-01-16 12:16:00,
2013-01-16 07:21:00,35.9,35.4,30.02,ENE,57,1.0,2.0,98,0.00,,,0.36,Wunderground v.1.15,2013-01-16 12:21:00,
2013-01-16 07:26:00,36.0,35.5,30.01,North,357,2.0,2.0,98,0.00,,,0.36,Wunderground v.1.15,2013-01-16 12:26:00,
2013-01-16 07:32:00,36.0,35.5,30.01,NE,46,1.0,2.0,98,0.00,,,0.36,Wunderground v.1.15,2013-01-16 12:32:00,
2013-01-16 07:37:00,36.0,35.5,30.00,NNE,26,2.0,3.0,98,0.00,,,0.36,Wunderground v.1.15,2013-01-16 12:37:00,
2013-01-16 07:42:00,36.0,35.5,30.00,ENE,63,1.0,1.0,98,0.00,,,0.36,Wunderground v.1.15,2013-01-16 12:42:00,
2013-01-16 07:49:00,36.1,35.6,30.01,North,358,0.0,2.0,98,0.00,,,0.36,Wunderground v.1.15,2013-01-16 12:49:00,
2013-01-16 07:54:00,36.1,35.6,30.01,North,359,0.0,1.0,98,0.00,,,0.36,Wunderground v.1.15,2013-01-16 12:54:00,
2013-01-16 08:00:00,36.1,35.6,30.02,NW,311,0.0,0.0,98,0.00,,,0.36,Wunderground v.1.15,2013-01-16 13:00:00,
2013-01-16 08:05:00,36.2,35.7,30.01,North,358,1.0,1.0,98,0.00,,,0.36,Wunderground v.1.15,2013-01-16 13:05:00,
2013-01-16 08:11:00,36.2,35.7,30.01,NNW,342,3.0,3.0,98,0.00,,,0.36,Wunderground v.1.15,2013-01-16 13:11:00,
2013-01-16 08:16:00,36.2,35.7,30.01,NNW,345,1.0,3.0,98,0.00,,,0.36,Wunderground v.1.15,2013-01-16 13:16:00,
2013-01-16 08:21:00,36.2,35.7,30.01,NE,40,2.0,2.0,98,0.00,,,0.36,Wunderground v.1.15,2013-01-16 13:21:00,
2013-01-16 08:27:00,36.2,35.7,30.01,ENE,75,0.0,2.0,98,0.00,,,0.36,Wunderground v.1.15,2013-01-16 13:27:00,
2013-01-16 08:32:00,36.3,35.8,30.00,East,96,0.0,0.0,98,0.00,,,0.36,Wunderground v.1.15,2013-01-16 13:32:00,
2013-01-16 08:37:00,36.3,35.8,30.00,NNW,343,1.0,2.0,98,0.00,,,0.36,Wunderground v.1.15,2013-01-16 13:37:00,
2013-01-16 08:43:00,36.3,35.8,29.99,NE,56,0.0,1.0,98,0.00,,,0.36,Wunderground v.1.15,2013-01-16 13:43:00,
2013-01-16 08:48:00,36.4,35.9,30.01,NE,55,1.0,1.0,98,0.00,,,0.36,Wunderground v.1.15,2013-01-16 13:48:00,
2013-01-16 08:53:00,36.4,35.9,30.01,NW,319,1.0,1.0,98,0.00,,,0.36,Wunderground v.1.15,2013-01-16 13:53:00,
2013-01-16 08:59:00,36.4,35.9,30.01,NNW,337,0.0,2.0,98,0.00,,,0.37,Wunderground v.1.15,2013-01-16 13:59:00,
2013-01-16 09:04:00,36.4,35.9,30.00,ENE,68,0.0,2.0,98,0.00,,,0.37,Wunderground v.1.15,2013-01-16 14:04:00,
2013-01-16 09:09:00,36.5,36.0,30.01,NW,321,1.0,2.0,98,0.00,,,0.37,Wunderground v.1.15,2013-01-16 14:09:00,
2013-01-16 09:15:00,36.5,36.0,30.02,WNW,302,2.0,2.0,98,0.00,,,0.37,Wunderground v.1.15,2013-01-16 14:15:00,
2013-01-16 09:20:00,36.5,36.0,30.03,West,269,2.0,2.0,98,0.00,,,0.38,Wunderground v.1.15,2013-01-16 14:20:00,
2013-01-16 09:26:00,36.5,36.0,30.03,West,263,2.0,3.0,98,0.00,,,0.38,Wunderground v.1.15,2013-01-16 14:26:00,
2013-01-16 09:31:00,36.6,36.1,30.02,West,279,1.0,2.0,98,0.00,,,0.38,Wunderground v.1.15,2013-01-16 14:31:00,
2013-01-16 09:36:00,36.6,36.1,30.02,WNW,297,2.0,3.0,98,0.00,,,0.38,Wunderground v.1.15,2013-01-16 14:36:00,
2013-01-16 09:42:00,36.6,36.1,30.01,WNW,292,0.0,1.0,98,0.00,,,0.38,Wunderground v.1.15,2013-01-16 14:42:00,
2013-01-16 09:47:00,36.6,36.1,30.01,WNW,292,0.0,1.0,98,0.00,,,0.38,Wunderground v.1.15,2013-01-16 14:47:00,
2013-01-16 09:52:00,36.6,35.8,30.02,WSW,247,2.0,2.0,97,0.00,,,0.38,Wunderground v.1.15,2013-01-16 14:52:00,
2013-01-16 09:58:00,36.6,35.8,30.01,WSW,242,0.0,2.0,97,0.00,,,0.39,Wunderground v.1.15,2013-01-16 14:58:00,
2013-01-16 10:03:00,36.7,35.9,30.02,West,266,3.0,3.0,97,0.00,,,0.39,Wunderground v.1.15,2013-01-16 15:03:00,
2013-01-16 10:08:00,36.7,35.9,30.02,West,264,2.0,3.0,97,0.00,,,0.39,Wunderground v.1.15,2013-01-16 15:08:00,
2013-01-16 10:14:00,36.7,35.9,30.01,WSW,240,2.0,3.0,97,0.00,,,0.39,Wunderground v.1.15,2013-01-16 15:14:00,
2013-01-16 10:19:00,36.7,35.9,30.01,SW,231,2.0,3.0,97,0.00,,,0.39,Wunderground v.1.15,2013-01-16 15:19:00,
2013-01-16 10:24:00,36.8,36.0,30.00,SSW,193,3.0,4.0,97,0.00,,,0.39,Wunderground v.1.15,2013-01-16 15:24:00,
2013-01-16 10:29:00,36.8,36.0,30.00,SSW,201,6.0,6.0,97,0.00,,,0.39,Wunderground v.1.15,2013-01-16 15:29:00,
2013-01-16 10:35:00,37.1,36.3,30.00,SSW,193,5.0,6.0,97,0.00,,,0.39,Wunderground v.1.15,2013-01-16 15:35:00,
2013-01-16 10:40:00,37.1,36.3,30.00,SSW,211,7.0,7.0,97,0.00,,,0.39,Wunderground v.1.15,2013-01-16 15:40:00,
2013-01-16 10:45:00,37.2,36.4,30.00,South,189,8.0,9.0,97,0.00,,,0.39,Wunderground v.1.15,2013-01-16 15:45:00,
2013-01-16 10:51:00,37.3,36.5,30.00,SSW,212,8.0,9.0,97,0.00,,,0.39,Wunderground v.1.15,2013-01-16 15:51:00,
2013-01-16 10:56:00,37.4,36.4,29.99,SSW,198,9.0,10.0,96,0.00,,,0.39,Wunderground v.1.15,2013-01-16 15:56:00,
2013-01-16 11:01:00,37.6,36.6,30.00,SW,231,8.0,8.0,96,0.00,,,0.39,Wunderground v.1.15,2013-01-16 16:01:00,
2013-01-16 11:07:00,37.5,36.5,30.00,SW,226,9.0,10.0,96,0.00,,,0.39,Wunderground v.1.15,2013-01-16 16:07:00,
2013-01-16 11:12:00,37.7,36.7,30.01,WSW,243,9.0,9.0,96,0.00,,,0.39,Wunderground v.1.15,2013-01-16 16:12:00,
2013-01-16 11:17:00,37.8,36.8,29.99,SW,222,8.0,10.0,96,0.00,,,0.39,Wunderground v.1.15,2013-01-16 16:17:00,
2013-01-16 11:24:00,37.9,36.9,29.99,SW,219,7.0,7.0,96,0.00,,,0.39,Wunderground v.1.15,2013-01-16 16:24:00,
2013-01-16 11:29:00,38.0,37.0,29.98,SSW,204,6.0,7.0,96,0.00,,,0.39,Wunderground v.1.15,2013-01-16 16:29:00,
2013-01-16 11:34:00,38.1,37.1,29.97,SSW,210,7.0,7.0,96,0.00,,,0.39,Wunderground v.1.15,2013-01-16 16:34:00,
2013-01-16 11:40:00,38.1,37.1,29.96,SSW,195,6.0,7.0,96,0.00,,,0.39,Wunderground v.1.15,2013-01-16 16:40:00,
2013-01-16 11:45:00,38.1,37.1,29.96,SSW,210,4.0,6.0,96,0.00,,,0.39,Wunderground v.1.15,2013-01-16 16:45:00,
2013-01-16 11:50:00,38.2,37.2,29.96,SSW,207,5.0,6.0,96,0.00,,,0.39,Wunderground v.1.15,2013-01-16 16:50:00,
2013-01-16 11:56:00,38.2,37.2,29.96,SW,224,5.0,5.0,96,0.00,,,0.39,Wunderground v.1.15,2013-01-16 16:56:00,
2013-01-16 12:01:00,38.3,37.3,29.94,South,188,6.0,6.0,96,0.00,,,0.39,Wunderground v.1.15,2013-01-16 17:01:00,
2013-01-16 12:06:00,38.4,37.4,29.93,SSW,193,7.0,8.0,96,0.00,,,0.39,Wunderground v.1.15,2013-01-16 17:06:00,
2013-01-16 12:11:00,38.5,37.7,29.93,SSW,212,7.0,7.0,97,0.00,,,0.39,Wunderground v.1.15,2013-01-16 17:11:00,
2013-01-16 12:17:00,38.6,37.6,29.92,South,190,10.0,13.0,96,0.00,,,0.39,Wunderground v.1.15,2013-01-16 17:17:00,
2013-01-16 12:22:00,38.6,37.6,29.90,South,184,5.0,8.0,96,0.00,,,0.39,Wunderground v.1.15,2013-01-16 17:22:00,
2013-01-16 12:28:00,38.7,37.7,29.88,SE,136,1.0,9.0,96,0.00,,,0.39,Wunderground v.1.15,2013-01-16 17:28:00,
2013-01-16 12:33:00,38.7,37.7,29.87,ESE,118,5.0,5.0,96,0.00,,,0.39,Wunderground v.1.15,2013-01-16 17:33:00,
2013-01-16 12:38:00,38.6,37.6,29.87,South,185,5.0,10.0,96,0.00,,,0.39,Wunderground v.1.15,2013-01-16 17:38:00,
2013-01-16 12:44:00,38.7,37.9,29.87,ESE,105,7.0,7.0,97,0.00,,,0.39,Wunderground v.1.15,2013-01-16 17:44:00,
2013-01-16 12:49:00,38.7,37.9,29.87,South,181,10.0,11.0,97,0.00,,,0.39,Wunderground v.1.15,2013-01-16 17:49:00,
2013-01-16 12:54:00,38.8,38.0,29.87,SSE,148,8.0,8.0,97,0.00,,,0.39,Wunderground v.1.15,2013-01-16 17:54:00,
2013-01-16 12:59:00,38.8,37.8,29.87,SE,132,4.0,12.0,96,0.00,,,0.39,Wunderground v.1.15,2013-01-16 17:59:00,
2013-01-16 13:05:00,38.9,38.1,29.89,South,190,9.0,12.0,97,0.00,,,0.39,Wunderground v.1.15,2013-01-16 18:05:00,
2013-01-16 13:10:00,39.1,38.3,29.88,South,190,12.0,12.0,97,0.00,,,0.39,Wunderground v.1.15,2013-01-16 18:10:00,
2013-01-16 13:15:00,39.2,38.4,29.84,South,180,13.0,13.0,97,0.00,,,0.39,Wunderground v.1.15,2013-01-16 18:15:00,
2013-01-16 13:21:00,39.3,38.5,29.85,SSE,160,8.0,8.0,97,0.00,,,0.39,Wunderground v.1.15,2013-01-16 18:21:00,
2013-01-16 13:26:00,39.4,38.4,29.88,SW,222,4.0,10.0,96,0.00,,,0.39,Wunderground v.1.15,2013-01-16 18:26:00,
2013-01-16 13:31:00,39.5,38.7,29.86,SSW,200,4.0,4.0,97,0.00,,,0.39,Wunderground v.1.15,2013-01-16 18:31:00,
2013-01-16 13:37:00,39.5,38.5,29.85,South,191,5.0,8.0,96,0.00,,,0.39,Wunderground v.1.15,2013-01-16 18:37:00,
2013-01-16 13:42:00,39.5,38.5,29.88,SSW,211,11.0,11.0,96,0.00,,,0.39,Wunderground v.1.15,2013-01-16 18:42:00,
2013-01-16 13:48:00,39.7,38.9,29.88,SSW,193,12.0,12.0,97,0.00,,,0.39,Wunderground v.1.15,2013-01-16 18:48:00,
2013-01-16 13:53:00,39.9,39.1,29.85,SSE,155,6.0,10.0,97,0.00,,,0.39,Wunderground v.1.15,2013-01-16 18:53:00,
2013-01-16 13:58:00,40.0,39.2,29.87,SE,136,0.0,10.0,97,0.00,,,0.39,Wunderground v.1.15,2013-01-16 18:58:00,
2013-01-16 14:04:00,40.0,39.2,29.84,South,175,9.0,10.0,97,0.00,,,0.39,Wunderground v.1.15,2013-01-16 19:04:00,
2013-01-16 14:09:00,40.1,39.3,29.84,SSW,193,13.0,13.0,97,0.00,,,0.39,Wunderground v.1.15,2013-01-16 19:09:00,
2013-01-16 14:14:00,40.7,39.9,29.88,West,280,18.0,18.0,97,0.00,,,0.39,Wunderground v.1.15,2013-01-16 19:14:00,
2013-01-16 14:20:00,40.7,39.6,29.91,SSW,212,6.0,18.0,96,0.00,,,0.39,Wunderground v.1.15,2013-01-16 19:20:00,
2013-01-16 14:25:00,40.8,39.7,29.90,SW,219,9.0,12.0,96,0.00,,,0.39,Wunderground v.1.15,2013-01-16 19:25:00,
2013-01-16 14:31:00,40.9,39.8,29.88,South,174,13.0,15.0,96,0.00,,,0.39,Wunderground v.1.15,2013-01-16 19:31:00,
2013-01-16 14:36:00,40.9,39.8,29.86,SSW,200,6.0,14.0,96,0.00,,,0.39,Wunderground v.1.15,2013-01-16 19:36:00,
2013-01-16 14:41:00,41.1,40.0,29.93,SSW,205,11.0,17.0,96,0.00,,,0.39,Wunderground v.1.15,2013-01-16 19:41:00,
2013-01-16 14:47:00,41.2,40.1,29.91,SW,229,9.0,15.0,96,0.00,,,0.39,Wunderground v.1.15,2013-01-16 19:47:00,
2013-01-16 14:52:00,41.2,40.1,29.88,South,187,11.0,15.0,96,0.00,,,0.39,Wunderground v.1.15,2013-01-16 19:52:00,
2013-01-16 14:57:00,41.2,40.1,29.86,SE,136,6.0,13.0,96,0.00,,,0.39,Wunderground v.1.15,2013-01-16 19:57:00,
2013-01-16 15:03:00,41.2,40.1,29.93,West,274,11.0,11.0,96,0.00,,,0.39,Wunderground v.1.15,2013-01-16 20:03:00,
2013-01-16 15:08:00,41.5,40.4,29.94,West,280,13.0,16.0,96,0.00,,,0.39,Wunderground v.1.15,2013-01-16 20:08:00,
2013-01-16 15:13:00,41.6,40.5,29.93,West,263,12.0,12.0,96,0.00,,,0.39,Wunderground v.1.15,2013-01-16 20:13:00,
2013-01-16 15:18:00,41.5,40.2,29.92,West,269,8.0,13.0,95,0.00,,,0.39,Wunderground v.1.15,2013-01-16 20:18:00,
2013-01-16 15:24:00,41.5,40.4,29.93,West,279,8.0,10.0,96,0.00,,,0.39,Wunderground v.1.15,2013-01-16 20:24:00,
2013-01-16 15:29:00,41.5,40.4,29.93,WNW,288,9.0,12.0,96,0.00,,,0.39,Wunderground v.1.15,2013-01-16 20:29:00,
2013-01-16 15:35:00,41.3,40.0,29.94,WNW,288,12.0,12.0,95,0.00,,,0.39,Wunderground v.1.15,2013-01-16 20:35:00,
2013-01-16 15:40:00,41.3,40.0,29.94,NW,304,10.0,14.0,95,0.00,,,0.39,Wunderground v.1.15,2013-01-16 20:40:00,
2013-01-16 15:45:00,41.0,39.7,29.94,WNW,295,12.0,12.0,95,0.00,,,0.39,Wunderground v.1.15,2013-01-16 20:45:00,
2013-01-16 15:51:00,40.9,39.8,29.96,NW,315,11.0,14.0,96,0.00,,,0.39,Wunderground v.1.15,2013-01-16 20:51:00,
2013-01-16 15:57:00,40.6,39.3,29.96,NW,311,14.0,14.0,95,0.00,,,0.39,Wunderground v.1.15,2013-01-16 20:57:00,
2013-01-16 16:02:00,40.6,39.3,29.96,NW,315,11.0,12.0,95,0.00,,,0.39,Wunderground v.1.15,2013-01-16 21:02:00,
2013-01-16 16:08:00,40.6,39.3,29.95,NW,315,7.0,12.0,95,0.00,,,0.39,Wunderground v.1.15,2013-01-16 21:08:00,
2013-01-16 16:14:00,40.7,39.6,29.95,NW,326,5.0,11.0,96,0.00,,,0.39,Wunderground v.1.15,2013-01-16 21:14:00,
2013-01-16 16:19:00,40.6,39.3,29.94,NW,312,3.0,11.0,95,0.00,,,0.40,Wunderground v.1.15,2013-01-16 21:19:00,
2013-01-16 16:24:00,40.6,39.3,29.94,NW,312,6.0,6.0,95,0.00,,,0.40,Wunderground v.1.15,2013-01-16 21:24:00,
2013-01-16 16:30:00,40.6,39.5,29.95,NW,304,6.0,7.0,96,0.00,,,0.40,Wunderground v.1.15,2013-01-16 21:30:00,
2013-01-16 16:35:00,40.7,39.4,29.94,NW,309,5.0,7.0,95,0.00,,,0.40,Wunderground v.1.15,2013-01-16 21:35:00,
2013-01-16 16:41:00,40.7,39.4,29.93,SSW,195,5.0,7.0,95,0.00,,,0.40,Wunderground v.1.15,2013-01-16 21:41:00,
2013-01-16 16:46:00,40.6,39.3,29.94,SW,230,2.0,5.0,95,0.00,,,0.40,Wunderground v.1.15,2013-01-16 21:46:00,
2013-01-16 16:52:00,40.7,39.4,29.96,WSW,246,5.0,5.0,95,0.00,,,0.40,Wunderground v.1.15,2013-01-16 21:52:00,
2013-01-16 16:57:00,40.8,39.5,29.95,SW,224,6.0,6.0,95,0.00,,,0.40,Wunderground v.1.15,2013-01-16 21:57:00,
2013-01-16 17:03:00,40.9,39.6,29.94,SW,219,5.0,5.0,95,0.00,,,0.40,Wunderground v.1.15,2013-01-16 22:03:00,
2013-01-16 17:09:00,40.9,39.6,29.95,SSW,211,4.0,6.0,95,0.00,,,0.40,Wunderground v.1.15,2013-01-16 22:09:00,
2013-01-16 17:14:00,40.9,39.6,29.94,SSW,212,4.0,5.0,95,0.00,,,0.40,Wunderground v.1.15,2013-01-16 22:14:00,
2013-01-16 17:19:00,40.9,39.6,29.93,SSW,201,6.0,6.0,95,0.00,,,0.40,Wunderground v.1.15,2013-01-16 22:19:00,
2013-01-16 17:25:00,40.9,39.3,29.94,WSW,239,6.0,6.0,94,0.00,,,0.40,Wunderground v.1.15,2013-01-16 22:25:00,
2013-01-16 17:30:00,41.1,39.5,29.96,WSW,246,7.0,7.0,94,0.00,,,0.40,Wunderground v.1.15,2013-01-16 22:30:00,
2013-01-16 17:36:00,41.1,39.5,29.96,SW,236,5.0,7.0,94,0.00,,,0.40,Wunderground v.1.15,2013-01-16 22:36:00,
2013-01-16 17:41:00,41.2,39.6,29.95,SW,231,4.0,7.0,94,0.00,,,0.40,Wunderground v.1.15,2013-01-16 22:41:00,
2013-01-16 17:46:00,41.2,39.6,29.96,WSW,255,5.0,6.0,94,0.00,,,0.40,Wunderground v.1.15,2013-01-16 22:46:00,
2013-01-16 17:52:00,41.3,39.7,29.94,WSW,240,4.0,6.0,94,0.00,,,0.40,Wunderground v.1.15,2013-01-16 22:52:00,
2013-01-16 17:58:00,41.3,39.7,29.97,WSW,255,7.0,8.0,94,0.00,,,0.40,Wunderground v.1.15,2013-01-16 22:58:00,
2013-01-16 18:03:00,41.3,39.7,29.96,WSW,247,6.0,8.0,94,0.00,,,0.40,Wunderground v.1.15,2013-01-16 23:03:00,
2013-01-16 18:09:00,41.4,39.8,29.95,WSW,256,4.0,8.0,94,0.00,,,0.40,Wunderground v.1.15,2013-01-16 23:09:00,
2013-01-16 18:14:00,41.4,39.8,29.97,West,269,6.0,6.0,94,0.00,,,0.40,Wunderground v.1.15,2013-01-16 23:14:00,
2013-01-16 18:20:00,41.4,39.8,29.97,West,259,5.0,8.0,94,0.00,,,0.40,Wunderground v.1.15,2013-01-16 23:20:00,
2013-01-16 18:25:00,41.4,39.8,29.98,WSW,249,6.0,6.0,94,0.00,,,0.40,Wunderground v.1.15,2013-01-16 23:25:00,
2013-01-16 18:31:00,41.3,39.7,29.96,West,266,3.0,6.0,94,0.00,,,0.40,Wunderground v.1.15,2013-01-16 23:31:00,
2013-01-16 18:36:00,41.4,39.8,29.96,West,277,2.0,4.0,94,0.00,,,0.40,Wunderground v.1.15,2013-01-16 23:36:00,
2013-01-16 18:42:00,41.4,39.8,29.97,West,271,4.0,4.0,94,0.00,,,0.40,Wunderground v.1.15,2013-01-16 23:42:00,
2013-01-16 18:47:00,41.4,40.1,29.96,West,260,3.0,4.0,95,0.00,,,0.40,Wunderground v.1.15,2013-01-16 23:47:00,
2013-01-16 18:53:00,41.4,40.1,29.96,WSW,248,2.0,3.0,95,0.00,,,0.40,Wunderground v.1.15,2013-01-16 23:53:00,
2013-01-16 18:59:00,41.5,40.2,29.97,WSW,255,4.0,4.0,95,0.00,,,0.40,Wunderground v.1.15,2013-01-16 23:59:00,
2013-01-16 19:04:00,41.5,40.2,29.96,SW,231,4.0,5.0,95,0.00,,,0.40,Wunderground v.1.15,2013-01-17 00:04:00,
2013-01-16 19:09:00,41.5,40.2,29.95,SW,215,5.0,5.0,95,0.00,,,0.40,Wunderground v.1.15,2013-01-17 00:09:00,
2013-01-16 19:15:00,41.6,40.3,29.96,SW,233,5.0,5.0,95,0.00,,,0.40,Wunderground v.1.15,2013-01-17 00:15:00,
2013-01-16 19:21:00,41.6,40.3,29.95,WSW,239,3.0,5.0,95,0.00,,,0.40,Wunderground v.1.15,2013-01-17 00:21:00,
2013-01-16 19:26:00,41.7,40.4,29.96,SW,229,4.0,4.0,95,0.00,,,0.40,Wunderground v.1.15,2013-01-17 00:26:00,
2013-01-16 19:32:00,41.7,40.4,29.96,SW,230,3.0,4.0,95,0.00,,,0.40,Wunderground v.1.15,2013-01-17 00:32:00,
2013-01-16 19:38:00,41.7,40.4,29.96,SW,235,3.0,4.0,95,0.00,,,0.40,Wunderground v.1.15,2013-01-17 00:38:00,
2013-01-16 19:43:00,41.8,40.5,29.98,West,262,5.0,5.0,95,0.00,,,0.40,Wunderground v.1.15,2013-01-17 00:43:00,
2013-01-16 19:49:00,41.9,40.6,29.98,WSW,250,5.0,6.0,95,0.00,,,0.40,Wunderground v.1.15,2013-01-17 00:49:00,
2013-01-16 19:54:00,41.9,40.6,29.97,SW,228,5.0,5.0,95,0.00,,,0.40,Wunderground v.1.15,2013-01-17 00:54:00,
2013-01-16 20:00:00,41.9,40.6,29.96,WSW,238,4.0,5.0,95,0.00,,,0.40,Wunderground v.1.15,2013-01-17 01:00:00,
2013-01-16 20:05:00,41.9,40.6,29.95,SW,221,3.0,5.0,95,0.00,,,0.40,Wunderground v.1.15,2013-01-17 01:05:00,
2013-01-16 20:11:00,41.9,40.6,29.97,WSW,240,5.0,5.0,95,0.00,,,0.40,Wunderground v.1.15,2013-01-17 01:11:00,
2013-01-16 20:16:00,41.9,40.6,29.97,WSW,246,5.0,6.0,95,0.00,,,0.40,Wunderground v.1.15,2013-01-17 01:16:00,
2013-01-16 20:22:00,41.9,40.6,29.97,WSW,239,4.0,5.0,95,0.00,,,0.40,Wunderground v.1.15,2013-01-17 01:22:00,
2013-01-16 20:28:00,41.9,40.6,29.96,SW,228,3.0,5.0,95,0.00,,,0.40,Wunderground v.1.15,2013-01-17 01:28:00,
2013-01-16 20:33:00,41.9,40.6,29.96,SW,219,4.0,4.0,95,0.00,,,0.40,Wunderground v.1.15,2013-01-17 01:33:00,
2013-01-16 20:39:00,41.9,40.6,29.96,SSW,210,4.0,5.0,95,0.00,,,0.40,Wunderground v.1.15,2013-01-17 01:39:00,
2013-01-16 20:44:00,41.9,40.6,29.96,SSW,208,4.0,4.0,95,0.00,,,0.40,Wunderground v.1.15,2013-01-17 01:44:00,
2013-01-16 20:50:00,42.0,40.7,29.96,SSW,211,5.0,5.0,95,0.00,,,0.40,Wunderground v.1.15,2013-01-17 01:50:00,
2013-01-16 20:55:00,42.0,40.7,29.97,WSW,237,4.0,4.0,95,0.00,,,0.40,Wunderground v.1.15,2013-01-17 01:55:00,
2013-01-16 21:01:00,42.1,40.8,29.96,SW,215,4.0,4.0,95,0.00,,,0.40,Wunderground v.1.15,2013-01-17 02:01:00,
2013-01-16 21:07:00,42.1,40.8,29.96,SSW,211,3.0,4.0,95,0.00,,,0.40,Wunderground v.1.15,2013-01-17 02:07:00,
2013-01-16 21:13:00,42.1,40.8,29.96,SSW,211,4.0,4.0,95,0.00,,,0.40,Wunderground v.1.15,2013-01-17 02:13:00,
2013-01-16 21:18:00,42.2,40.9,29.96,SW,216,6.0,6.0,95,0.00,,,0.40,Wunderground v.1.15,2013-01-17 02:18:00,
2013-01-16 21:24:00,42.2,40.9,29.96,SW,222,4.0,6.0,95,0.00,,,0.40,Wunderground v.1.15,2013-01-17 02:24:00,
2013-01-16 21:30:00,42.2,41.1,29.96,SSW,212,5.0,6.0,96,0.00,,,0.40,Wunderground v.1.15,2013-01-17 02:30:00,
2013-01-16 21:35:00,42.3,41.2,29.95,SSW,202,6.0,6.0,96,0.00,,,0.40,Wunderground v.1.15,2013-01-17 02:35:00,
2013-01-16 21:41:00,42.3,41.2,29.95,SSW,208,7.0,7.0,96,0.00,,,0.40,Wunderground v.1.15,2013-01-17 02:41:00,
2013-01-16 21:46:00,42.3,41.2,29.95,SSW,205,6.0,6.0,96,0.00,,,0.40,Wunderground v.1.15,2013-01-17 02:46:00,
2013-01-16 21:52:00,42.3,41.2,29.95,SSW,201,4.0,6.0,96,0.00,,,0.40,Wunderground v.1.15,2013-01-17 02:52:00,
2013-01-16 21:57:00,42.3,41.2,29.95,SSW,194,4.0,5.0,96,0.00,,,0.40,Wunderground v.1.15,2013-01-17 02:57:00,
2013-01-16 22:03:00,42.2,41.1,29.96,SSW,195,4.0,4.0,96,0.00,,,0.40,Wunderground v.1.15,2013-01-17 03:03:00,
2013-01-16 22:09:00,42.2,41.1,29.96,SSW,193,5.0,5.0,96,0.00,,,0.40,Wunderground v.1.15,2013-01-17 03:09:00,
2013-01-16 22:14:00,42.2,41.1,29.96,SSW,195,5.0,6.0,96,0.00,,,0.40,Wunderground v.1.15,2013-01-17 03:14:00,
2013-01-16 22:19:00,42.2,41.1,29.96,SSW,203,4.0,6.0,96,0.00,,,0.40,Wunderground v.1.15,2013-01-17 03:19:00,
2013-01-16 22:25:00,42.2,41.1,29.96,SSW,201,5.0,5.0,96,0.00,,,0.40,Wunderground v.1.15,2013-01-17 03:25:00,
2013-01-16 22:30:00,42.2,41.1,29.97,SW,222,4.0,5.0,96,0.00,,,0.40,Wunderground v.1.15,2013-01-17 03:30:00,
2013-01-16 22:36:00,42.2,41.1,29.97,SW,220,4.0,5.0,96,0.00,,,0.40,Wunderground v.1.15,2013-01-17 03:36:00,
2013-01-16 22:41:00,42.2,41.1,29.97,WSW,237,3.0,5.0,96,0.00,,,0.40,Wunderground v.1.15,2013-01-17 03:41:00,
2013-01-16 22:47:00,42.3,41.5,29.97,WSW,252,2.0,4.0,97,0.00,,,0.40,Wunderground v.1.15,2013-01-17 03:47:00,
2013-01-16 22:52:00,42.3,41.5,29.97,SW,222,4.0,4.0,97,0.00,,,0.40,Wunderground v.1.15,2013-01-17 03:52:00,
2013-01-16 22:58:00,42.3,41.5,29.97,SSW,197,3.0,4.0,97,0.00,,,0.40,Wunderground v.1.15,2013-01-17 03:58:00,
2013-01-16 23:03:00,42.3,41.5,29.96,South,177,3.0,3.0,97,0.00,,,0.40,Wunderground v.1.15,2013-01-17 04:03:00,
2013-01-16 23:09:00,42.3,41.5,29.96,South,172,3.0,4.0,97,0.00,,,0.40,Wunderground v.1.15,2013-01-17 04:09:00,
2013-01-16 23:14:00,42.3,41.5,29.97,South,186,4.0,4.0,97,0.00,,,0.40,Wunderground v.1.15,2013-01-17 04:14:00,
2013-01-16 23:20:00,42.2,41.4,29.97,South,174,4.0,5.0,97,0.00,,,0.40,Wunderground v.1.15,2013-01-17 04:20:00,
2013-01-16 23:25:00,42.3,41.5,29.98,SW,215,4.0,5.0,97,0.00,,,0.40,Wunderground v.1.15,2013-01-17 04:25:00,
2013-01-16 23:31:00,42.3,41.5,29.98,SSW,207,4.0,5.0,97,0.00,,,0.40,Wunderground v.1.15,2013-01-17 04:31:00,
2013-01-16 23:36:00,42.3,41.5,29.98,SSW,207,4.0,4.0,97,0.00,,,0.40,Wunderground v.1.15,2013-01-17 04:36:00,
2013-01-16 23:42:00,42.3,41.5,29.98,SW,215,3.0,5.0,97,0.00,,,0.40,Wunderground v.1.15,2013-01-17 04:42:00,
2013-01-16 23:47:00,42.3,41.5,29.97,SSW,194,3.0,4.0,97,0.00,,,0.40,Wunderground v.1.15,2013-01-17 04:47:00,
2013-01-16 23:53:00,42.3,41.5,29.96,SE,139,0.0,3.0,97,0.00,,,0.40,Wunderground v.1.15,2013-01-17 04:53:00,
2013-01-16 23:59:00,42.2,41.4,29.96,South,172,0.0,3.0,97,0.00,,,0.40,Wunderground v.1.15,2013-01-17 04:59:00,